sensor_id;sensor_type;location;lat;lon;timestamp;pressure;altitude;pressure_sealevel;temperature;humidity
41078;BME280;26823;42.662;23.352;2022-11-06T00:01:58;94327.16;;;11.56;71.63
41078;BME280;26823;42.662;23.352;2022-11-06T00:04:23;94325.31;;;11.52;72.06
41078;BME280;26823;42.662;23.352;2022-11-06T00:06:49;94332.13;;;11.49;71.81
41078;BME280;26823;42.662;23.352;2022-11-06T00:09:19;94327.16;;;11.37;71.92
41078;BME280;26823;42.662;23.352;2022-11-06T00:11:45;94349.13;;;11.69;71.31
41078;BME280;26823;42.662;23.352;2022-11-06T00:14:11;94347.53;;;11.68;71.29
41078;BME280;26823;42.662;23.352;2022-11-06T00:16:38;94339.91;;;11.70;71.35
41078;BME280;26823;42.662;23.352;2022-11-06T00:19:03;94322.31;;;11.53;71.32
41078;BME280;26823;42.662;23.352;2022-11-06T00:21:29;94339.91;;;11.70;71.24
41078;BME280;26823;42.662;23.352;2022-11-06T00:23:58;94321.66;;;11.62;71.27
41078;BME280;26823;42.662;23.352;2022-11-06T00:26:25;94338.00;;;11.70;71.15
41078;BME280;26823;42.662;23.352;2022-11-06T00:28:52;94343.94;;;11.72;71.35
41078;BME280;26823;42.662;23.352;2022-11-06T00:31:25;94331.44;;;11.57;71.83
41078;BME280;26823;42.662;23.352;2022-11-06T00:33:52;94337.78;;;11.53;71.87
41078;BME280;26823;42.662;23.352;2022-11-06T00:36:20;94336.38;;;11.55;71.55
41078;BME280;26823;42.662;23.352;2022-11-06T00:38:46;94331.63;;;11.47;72.74
41078;BME280;26823;42.662;23.352;2022-11-06T00:41:15;94337.63;;;11.44;72.63
41078;BME280;26823;42.662;23.352;2022-11-06T00:43:42;94338.03;;;11.51;72.46
41078;BME280;26823;42.662;23.352;2022-11-06T00:46:12;94330.66;;;11.57;71.75
41078;BME280;26823;42.662;23.352;2022-11-06T00:48:39;94330.31;;;11.45;72.25
41078;BME280;26823;42.662;23.352;2022-11-06T00:51:08;94330.38;;;11.39;72.20
41078;BME280;26823;42.662;23.352;2022-11-06T00:53:34;94330.09;;;11.41;72.38
41078;BME280;26823;42.662;23.352;2022-11-06T00:56:11;94319.72;;;11.29;72.47
41078;BME280;26823;42.662;23.352;2022-11-06T00:58:38;94325.00;;;11.20;73.36
41078;BME280;26823;42.662;23.352;2022-11-06T01:01:09;94325.47;;;10.89;74.36
41078;BME280;26823;42.662;23.352;2022-11-06T01:03:34;94319.53;;;10.87;74.33
41078;BME280;26823;42.662;23.352;2022-11-06T01:06:08;94322.94;;;10.93;74.64
41078;BME280;26823;42.662;23.352;2022-11-06T01:08:35;94322.75;;;10.89;74.66
41078;BME280;26823;42.662;23.352;2022-11-06T01:11:11;94316.75;;;10.92;74.25
41078;BME280;26823;42.662;23.352;2022-11-06T01:13:37;94322.53;;;11.05;74.02
41078;BME280;26823;42.662;23.352;2022-11-06T01:16:05;94300.13;;;10.99;74.16
41078;BME280;26823;42.662;23.352;2022-11-06T01:18:31;94300.59;;;11.06;74.15
41078;BME280;26823;42.662;23.352;2022-11-06T01:20:57;94294.00;;;11.13;74.36
41078;BME280;26823;42.662;23.352;2022-11-06T01:23:22;94289.22;;;11.04;74.21
41078;BME280;26823;42.662;23.352;2022-11-06T01:25:55;94290.47;;;11.12;74.32
41078;BME280;26823;42.662;23.352;2022-11-06T01:28:21;94286.72;;;11.27;73.71
41078;BME280;26823;42.662;23.352;2022-11-06T01:30:46;94285.25;;;11.35;73.25
41078;BME280;26823;42.662;23.352;2022-11-06T01:33:12;94282.38;;;11.45;72.72
41078;BME280;26823;42.662;23.352;2022-11-06T01:35:43;94293.34;;;11.68;71.93
41078;BME280;26823;42.662;23.352;2022-11-06T01:38:09;94296.81;;;11.87;71.36
41078;BME280;26823;42.662;23.352;2022-11-06T01:40:42;94306.28;;;12.04;70.21
41078;BME280;26823;42.662;23.352;2022-11-06T01:43:17;94302.88;;;12.12;69.79
41078;BME280;26823;42.662;23.352;2022-11-06T01:45:51;94300.56;;;12.19;69.40
41078;BME280;26823;42.662;23.352;2022-11-06T01:48:24;94298.25;;;12.27;69.35
41078;BME280;26823;42.662;23.352;2022-11-06T01:50:55;94288.00;;;12.23;69.23
41078;BME280;26823;42.662;23.352;2022-11-06T01:53:23;94309.78;;;12.32;69.17
41078;BME280;26823;42.662;23.352;2022-11-06T01:55:52;94290.81;;;12.32;69.02
41078;BME280;26823;42.662;23.352;2022-11-06T01:58:20;94291.44;;;12.29;69.05
41078;BME280;26823;42.662;23.352;2022-11-06T02:00:47;94298.16;;;12.32;68.85
41078;BME280;26823;42.662;23.352;2022-11-06T02:03:13;94273.97;;;12.07;69.14
41078;BME280;26823;42.662;23.352;2022-11-06T02:05:39;94307.72;;;12.29;69.06
41078;BME280;26823;42.662;23.352;2022-11-06T02:08:07;94300.34;;;12.30;68.94
41078;BME280;26823;42.662;23.352;2022-11-06T02:10:33;94294.72;;;12.26;68.81
41078;BME280;26823;42.662;23.352;2022-11-06T02:16:48;94300.56;;;12.33;68.88
41078;BME280;26823;42.662;23.352;2022-11-06T02:30:40;94286.22;;;12.33;68.68
41078;BME280;26823;42.662;23.352;2022-11-06T02:33:12;94279.97;;;12.32;68.88
41078;BME280;26823;42.662;23.352;2022-11-06T02:35:46;94264.84;;;12.17;68.96
41078;BME280;26823;42.662;23.352;2022-11-06T02:38:28;94291.94;;;12.31;68.90
41078;BME280;26823;42.662;23.352;2022-11-06T02:40:57;94297.44;;;12.40;68.92
41078;BME280;26823;42.662;23.352;2022-11-06T02:43:29;94299.56;;;12.43;68.93
41078;BME280;26823;42.662;23.352;2022-11-06T02:46:00;94309.78;;;12.46;69.13
41078;BME280;26823;42.662;23.352;2022-11-06T02:48:31;94319.97;;;12.40;69.38
41078;BME280;26823;42.662;23.352;2022-11-06T02:50:59;94310.31;;;12.34;69.35
41078;BME280;26823;42.662;23.352;2022-11-06T02:53:26;94303.38;;;12.28;69.65
41078;BME280;26823;42.662;23.352;2022-11-06T02:56:02;94315.03;;;12.29;69.61
41078;BME280;26823;42.662;23.352;2022-11-06T02:58:35;94324.06;;;12.38;70.31
41078;BME280;26823;42.662;23.352;2022-11-06T03:01:28;94328.00;;;12.46;69.92
41078;BME280;26823;42.662;23.352;2022-11-06T03:04:01;94316.25;;;12.50;70.12
41078;BME280;26823;42.662;23.352;2022-11-06T03:06:48;94330.81;;;12.54;70.04
41078;BME280;26823;42.662;23.352;2022-11-06T03:09:26;94328.88;;;12.41;70.51
41078;BME280;26823;42.662;23.352;2022-11-06T03:11:58;94325.38;;;12.40;70.58
41078;BME280;26823;42.662;23.352;2022-11-06T03:14:35;94337.53;;;12.43;71.02
41078;BME280;26823;42.662;23.352;2022-11-06T03:17:16;94337.03;;;12.41;71.41
41078;BME280;26823;42.662;23.352;2022-11-06T03:22:25;94338.72;;;12.37;71.07
41078;BME280;26823;42.662;23.352;2022-11-06T03:25:30;94339.84;;;12.36;71.12
41078;BME280;26823;42.662;23.352;2022-11-06T03:30:43;94337.75;;;12.33;71.95
41078;BME280;26823;42.662;23.352;2022-11-06T03:33:51;94343.94;;;12.33;72.69
41078;BME280;26823;42.662;23.352;2022-11-06T03:36:23;94343.16;;;12.33;72.05
41078;BME280;26823;42.662;23.352;2022-11-06T03:39:15;94336.34;;;12.35;72.62
41078;BME280;26823;42.662;23.352;2022-11-06T03:41:47;94345.88;;;12.33;72.81
41078;BME280;26823;42.662;23.352;2022-11-06T03:44:18;94348.47;;;12.24;73.34
41078;BME280;26823;42.662;23.352;2022-11-06T03:47:00;94342.81;;;12.06;74.23
41078;BME280;26823;42.662;23.352;2022-11-06T03:49:40;94330.28;;;12.11;73.98
41078;BME280;26823;42.662;23.352;2022-11-06T03:52:18;94339.50;;;12.10;73.95
41078;BME280;26823;42.662;23.352;2022-11-06T03:54:49;94333.91;;;12.06;73.89
41078;BME280;26823;42.662;23.352;2022-11-06T03:57:27;94331.72;;;11.89;73.86
41078;BME280;26823;42.662;23.352;2022-11-06T04:00:04;94334.06;;;11.96;73.86
41078;BME280;26823;42.662;23.352;2022-11-06T04:02:40;94340.38;;;11.91;74.23
41078;BME280;26823;42.662;23.352;2022-11-06T04:05:15;94339.66;;;11.85;74.39
41078;BME280;26823;42.662;23.352;2022-11-06T04:07:47;94340.59;;;11.95;75.35
41078;BME280;26823;42.662;23.352;2022-11-06T04:10:33;94333.00;;;11.78;75.66
41078;BME280;26823;42.662;23.352;2022-11-06T04:13:20;94342.66;;;11.84;76.11
41078;BME280;26823;42.662;23.352;2022-11-06T04:16:05;94355.63;;;11.87;77.29
41078;BME280;26823;42.662;23.352;2022-11-06T04:18:32;94354.28;;;11.84;78.01
41078;BME280;26823;42.662;23.352;2022-11-06T04:24:36;94354.56;;;11.69;80.50
41078;BME280;26823;42.662;23.352;2022-11-06T04:29:57;94364.91;;;11.67;81.28
41078;BME280;26823;42.662;23.352;2022-11-06T04:35:03;94360.34;;;11.62;82.44
41078;BME280;26823;42.662;23.352;2022-11-06T04:37:38;94353.31;;;11.61;83.18
41078;BME280;26823;42.662;23.352;2022-11-06T04:40:17;94336.94;;;11.52;83.97
41078;BME280;26823;42.662;23.352;2022-11-06T04:43:01;94338.88;;;11.52;84.15
41078;BME280;26823;42.662;23.352;2022-11-06T04:45:39;94359.34;;;11.58;84.36
41078;BME280;26823;42.662;23.352;2022-11-06T04:48:07;94353.19;;;11.52;84.93
41078;BME280;26823;42.662;23.352;2022-11-06T04:50:45;94349.31;;;11.58;84.84
41078;BME280;26823;42.662;23.352;2022-11-06T04:53:12;94359.25;;;11.63;84.92
41078;BME280;26823;42.662;23.352;2022-11-06T04:55:47;94343.06;;;11.44;85.86
41078;BME280;26823;42.662;23.352;2022-11-06T04:58:14;94351.88;;;11.50;86.27
41078;BME280;26823;42.662;23.352;2022-11-06T05:00:43;94358.91;;;11.51;86.87
41078;BME280;26823;42.662;23.352;2022-11-06T05:03:10;94358.44;;;11.63;86.30
41078;BME280;26823;42.662;23.352;2022-11-06T05:05:35;94361.84;;;11.54;87.27
41078;BME280;26823;42.662;23.352;2022-11-06T05:08:01;94372.19;;;11.66;86.82
41078;BME280;26823;42.662;23.352;2022-11-06T05:10:26;94347.00;;;11.52;87.31
41078;BME280;26823;42.662;23.352;2022-11-06T05:12:51;94380.72;;;11.59;87.49
41078;BME280;26823;42.662;23.352;2022-11-06T05:15:17;94388.41;;;11.52;88.20
41078;BME280;26823;42.662;23.352;2022-11-06T05:17:42;94385.47;;;11.49;88.29
41078;BME280;26823;42.662;23.352;2022-11-06T05:20:08;94395.97;;;11.55;88.45
41078;BME280;26823;42.662;23.352;2022-11-06T05:22:33;94359.25;;;11.30;88.32
41078;BME280;26823;42.662;23.352;2022-11-06T05:25:17;94401.28;;;11.61;88.27
41078;BME280;26823;42.662;23.352;2022-11-06T05:27:42;94404.00;;;11.61;88.27
41078;BME280;26823;42.662;23.352;2022-11-06T05:30:08;94397.19;;;11.63;88.07
41078;BME280;26823;42.662;23.352;2022-11-06T05:32:34;94386.34;;;11.63;87.96
41078;BME280;26823;42.662;23.352;2022-11-06T05:34:59;94406.69;;;11.80;87.45
41078;BME280;26823;42.662;23.352;2022-11-06T05:37:26;94390.47;;;11.61;87.86
41078;BME280;26823;42.662;23.352;2022-11-06T05:39:51;94408.16;;;11.72;87.83
41078;BME280;26823;42.662;23.352;2022-11-06T05:42:17;94410.78;;;11.77;87.64
41078;BME280;26823;42.662;23.352;2022-11-06T05:44:42;94409.47;;;11.74;87.44
41078;BME280;26823;42.662;23.352;2022-11-06T05:47:08;94416.13;;;11.82;87.39
41078;BME280;26823;42.662;23.352;2022-11-06T05:49:33;94415.50;;;11.85;87.17
41078;BME280;26823;42.662;23.352;2022-11-06T05:51:58;94430.25;;;11.79;87.21
41078;BME280;26823;42.662;23.352;2022-11-06T05:54:24;94438.00;;;11.86;87.19
41078;BME280;26823;42.662;23.352;2022-11-06T05:56:49;94428.66;;;11.97;86.55
41078;BME280;26823;42.662;23.352;2022-11-06T05:59:15;94431.50;;;12.06;85.60
41078;BME280;26823;42.662;23.352;2022-11-06T06:01:40;94438.41;;;12.12;86.00
41078;BME280;26823;42.662;23.352;2022-11-06T06:04:05;94439.63;;;12.06;86.12
41078;BME280;26823;42.662;23.352;2022-11-06T06:06:31;94440.41;;;12.06;85.91
41078;BME280;26823;42.662;23.352;2022-11-06T06:08:57;94449.84;;;12.09;85.68
41078;BME280;26823;42.662;23.352;2022-11-06T06:11:22;94441.44;;;11.91;85.85
41078;BME280;26823;42.662;23.352;2022-11-06T06:13:48;94449.81;;;11.76;87.05
41078;BME280;26823;42.662;23.352;2022-11-06T06:16:14;94438.19;;;11.75;87.16
41078;BME280;26823;42.662;23.352;2022-11-06T06:18:40;94457.06;;;11.81;86.91
41078;BME280;26823;42.662;23.352;2022-11-06T06:21:05;94457.06;;;11.81;86.99
41078;BME280;26823;42.662;23.352;2022-11-06T06:23:31;94461.31;;;11.87;87.34
41078;BME280;26823;42.662;23.352;2022-11-06T06:25:56;94464.66;;;11.98;86.53
41078;BME280;26823;42.662;23.352;2022-11-06T06:28:21;94472.06;;;11.92;86.40
41078;BME280;26823;42.662;23.352;2022-11-06T06:30:47;94483.66;;;11.98;86.46
41078;BME280;26823;42.662;23.352;2022-11-06T06:33:12;94468.75;;;11.95;85.95
41078;BME280;26823;42.662;23.352;2022-11-06T06:35:38;94468.69;;;12.00;86.42
41078;BME280;26823;42.662;23.352;2022-11-06T06:38:03;94480.41;;;11.96;86.39
41078;BME280;26823;42.662;23.352;2022-11-06T06:40:29;94469.06;;;11.94;86.62
41078;BME280;26823;42.662;23.352;2022-11-06T06:42:55;94463.88;;;11.97;86.13
41078;BME280;26823;42.662;23.352;2022-11-06T06:45:21;94451.25;;;11.87;86.15
41078;BME280;26823;42.662;23.352;2022-11-06T06:47:47;94478.88;;;11.89;86.35
41078;BME280;26823;42.662;23.352;2022-11-06T06:50:13;94486.78;;;12.05;86.00
41078;BME280;26823;42.662;23.352;2022-11-06T06:52:38;94494.84;;;12.10;86.34
41078;BME280;26823;42.662;23.352;2022-11-06T06:55:04;94502.88;;;12.15;85.77
41078;BME280;26823;42.662;23.352;2022-11-06T06:57:30;94481.16;;;12.01;85.73
41078;BME280;26823;42.662;23.352;2022-11-06T06:59:55;94491.97;;;12.20;85.08
41078;BME280;26823;42.662;23.352;2022-11-06T07:02:21;94491.44;;;12.18;84.97
41078;BME280;26823;42.662;23.352;2022-11-06T07:04:46;94496.59;;;12.20;84.85
41078;BME280;26823;42.662;23.352;2022-11-06T07:07:12;94491.34;;;12.23;85.24
41078;BME280;26823;42.662;23.352;2022-11-06T07:09:37;94508.94;;;12.26;84.57
41078;BME280;26823;42.662;23.352;2022-11-06T07:12:03;94488.47;;;12.20;84.32
41078;BME280;26823;42.662;23.352;2022-11-06T07:14:28;94520.34;;;12.42;84.45
41078;BME280;26823;42.662;23.352;2022-11-06T07:16:54;94518.03;;;12.35;83.89
41078;BME280;26823;42.662;23.352;2022-11-06T07:19:19;94521.75;;;12.39;84.52
41078;BME280;26823;42.662;23.352;2022-11-06T07:21:45;94524.66;;;12.43;84.25
41078;BME280;26823;42.662;23.352;2022-11-06T07:24:10;94524.50;;;12.53;83.95
41078;BME280;26823;42.662;23.352;2022-11-06T07:26:35;94528.41;;;12.47;84.07
41078;BME280;26823;42.662;23.352;2022-11-06T07:29:01;94533.44;;;12.54;84.00
41078;BME280;26823;42.662;23.352;2022-11-06T07:31:26;94525.69;;;12.47;84.17
41078;BME280;26823;42.662;23.352;2022-11-06T07:33:52;94521.06;;;12.48;84.11
41078;BME280;26823;42.662;23.352;2022-11-06T07:36:17;94529.25;;;12.62;83.61
41078;BME280;26823;42.662;23.352;2022-11-06T07:38:43;94536.09;;;12.73;83.48
41078;BME280;26823;42.662;23.352;2022-11-06T07:41:11;94533.00;;;12.80;82.79
41078;BME280;26823;42.662;23.352;2022-11-06T07:43:37;94542.03;;;12.89;82.45
41078;BME280;26823;42.662;23.352;2022-11-06T07:46:05;94534.50;;;12.86;81.81
41078;BME280;26823;42.662;23.352;2022-11-06T07:48:31;94545.47;;;12.95;82.10
41078;BME280;26823;42.662;23.352;2022-11-06T07:50:57;94535.50;;;12.90;81.40
41078;BME280;26823;42.662;23.352;2022-11-06T07:53:23;94548.19;;;12.95;81.68
41078;BME280;26823;42.662;23.352;2022-11-06T07:55:52;94552.59;;;12.91;81.79
41078;BME280;26823;42.662;23.352;2022-11-06T07:58:18;94535.59;;;12.85;82.16
41078;BME280;26823;42.662;23.352;2022-11-06T08:00:52;94554.72;;;12.94;82.03
41078;BME280;26823;42.662;23.352;2022-11-06T08:03:18;94548.91;;;13.00;81.56
41078;BME280;26823;42.662;23.352;2022-11-06T08:05:44;94552.03;;;13.08;81.34
41078;BME280;26823;42.662;23.352;2022-11-06T08:08:10;94552.81;;;13.08;81.12
41078;BME280;26823;42.662;23.352;2022-11-06T08:10:36;94546.69;;;13.02;81.33
41078;BME280;26823;42.662;23.352;2022-11-06T08:13:14;94552.34;;;13.20;82.37
41078;BME280;26823;42.662;23.352;2022-11-06T08:15:41;94548.59;;;13.30;81.83
41078;BME280;26823;42.662;23.352;2022-11-06T08:18:07;94563.81;;;13.45;81.98
41078;BME280;26823;42.662;23.352;2022-11-06T08:20:34;94545.91;;;13.44;81.06
41078;BME280;26823;42.662;23.352;2022-11-06T08:23:01;94545.59;;;13.17;81.99
41078;BME280;26823;42.662;23.352;2022-11-06T08:25:28;94565.91;;;13.34;81.86
41078;BME280;26823;42.662;23.352;2022-11-06T08:27:57;94576.28;;;13.32;82.08
41078;BME280;26823;42.662;23.352;2022-11-06T08:30:24;94565.03;;;13.38;81.80
41078;BME280;26823;42.662;23.352;2022-11-06T08:32:50;94577.72;;;13.43;81.62
41078;BME280;26823;42.662;23.352;2022-11-06T08:35:16;94576.97;;;13.24;83.95
41078;BME280;26823;42.662;23.352;2022-11-06T08:37:41;94571.81;;;13.08;85.97
41078;BME280;26823;42.662;23.352;2022-11-06T08:40:07;94575.03;;;12.96;87.66
41078;BME280;26823;42.662;23.352;2022-11-06T08:42:33;94566.25;;;12.85;88.41
41078;BME280;26823;42.662;23.352;2022-11-06T08:44:58;94562.41;;;12.72;89.73
41078;BME280;26823;42.662;23.352;2022-11-06T08:47:23;94579.06;;;12.99;89.67
41078;BME280;26823;42.662;23.352;2022-11-06T08:49:49;94563.16;;;12.78;89.53
41078;BME280;26823;42.662;23.352;2022-11-06T08:52:14;94580.94;;;12.84;90.59
41078;BME280;26823;42.662;23.352;2022-11-06T08:54:40;94588.91;;;12.95;90.16
41078;BME280;26823;42.662;23.352;2022-11-06T08:57:05;94591.13;;;13.07;91.09
41078;BME280;26823;42.662;23.352;2022-11-06T08:59:30;94586.69;;;12.97;91.27
41078;BME280;26823;42.662;23.352;2022-11-06T09:01:57;94599.19;;;13.12;91.34
41078;BME280;26823;42.662;23.352;2022-11-06T09:04:23;94579.00;;;13.32;90.79
41078;BME280;26823;42.662;23.352;2022-11-06T09:06:48;94600.41;;;13.19;91.85
41078;BME280;26823;42.662;23.352;2022-11-06T09:09:13;94596.28;;;13.22;92.31
41078;BME280;26823;42.662;23.352;2022-11-06T09:11:39;94580.53;;;13.38;91.94
41078;BME280;26823;42.662;23.352;2022-11-06T09:14:04;94602.16;;;13.43;90.27
41078;BME280;26823;42.662;23.352;2022-11-06T09:16:30;94596.91;;;13.33;88.95
41078;BME280;26823;42.662;23.352;2022-11-06T09:18:55;94576.38;;;13.13;89.45
41078;BME280;26823;42.662;23.352;2022-11-06T09:21:22;94595.97;;;13.24;90.06
41078;BME280;26823;42.662;23.352;2022-11-06T09:23:47;94591.22;;;13.01;89.56
41078;BME280;26823;42.662;23.352;2022-11-06T09:26:13;94604.72;;;13.07;90.43
41078;BME280;26823;42.662;23.352;2022-11-06T09:28:39;94589.09;;;12.98;91.09
41078;BME280;26823;42.662;23.352;2022-11-06T09:31:05;94595.03;;;13.00;92.49
41078;BME280;26823;42.662;23.352;2022-11-06T09:33:31;94594.06;;;13.10;92.42
41078;BME280;26823;42.662;23.352;2022-11-06T09:35:57;94596.34;;;13.03;91.75
41078;BME280;26823;42.662;23.352;2022-11-06T09:38:22;94599.97;;;12.98;92.65
41078;BME280;26823;42.662;23.352;2022-11-06T09:40:54;94595.66;;;12.97;93.59
41078;BME280;26823;42.662;23.352;2022-11-06T09:43:49;94599.03;;;12.89;93.52
41078;BME280;26823;42.662;23.352;2022-11-06T09:46:41;94594.72;;;12.88;93.17
41078;BME280;26823;42.662;23.352;2022-11-06T09:52:16;94600.75;;;12.85;93.76
41078;BME280;26823;42.662;23.352;2022-11-06T09:54:56;94586.41;;;12.65;94.07
41078;BME280;26823;42.662;23.352;2022-11-06T09:59:50;94584.56;;;12.80;93.05
41078;BME280;26823;42.662;23.352;2022-11-06T10:07:37;94594.47;;;13.03;93.06
41078;BME280;26823;42.662;23.352;2022-11-06T10:10:06;94587.53;;;13.11;92.09
41078;BME280;26823;42.662;23.352;2022-11-06T10:18:04;94601.09;;;12.97;92.22
41078;BME280;26823;42.662;23.352;2022-11-06T10:20:44;94604.81;;;13.15;91.91
41078;BME280;26823;42.662;23.352;2022-11-06T10:23:33;94597.69;;;13.19;91.88
41078;BME280;26823;42.662;23.352;2022-11-06T10:26:19;94596.06;;;13.18;91.14
41078;BME280;26823;42.662;23.352;2022-11-06T10:34:30;94586.91;;;13.14;92.40
41078;BME280;26823;42.662;23.352;2022-11-06T10:37:11;94609.47;;;13.29;92.57
41078;BME280;26823;42.662;23.352;2022-11-06T10:39:39;94570.81;;;13.04;91.46
41078;BME280;26823;42.662;23.352;2022-11-06T10:42:12;94583.00;;;13.20;91.05
41078;BME280;26823;42.662;23.352;2022-11-06T10:44:54;94603.44;;;13.32;90.18
41078;BME280;26823;42.662;23.352;2022-11-06T10:47:23;94583.66;;;12.98;91.15
41078;BME280;26823;42.662;23.352;2022-11-06T10:57:45;94608.38;;;12.83;93.21
41078;BME280;26823;42.662;23.352;2022-11-06T11:00:14;94595.06;;;12.67;92.65
41078;BME280;26823;42.662;23.352;2022-11-06T11:02:45;94572.13;;;12.60;92.13
41078;BME280;26823;42.662;23.352;2022-11-06T11:05:13;94610.19;;;12.87;93.24
41078;BME280;26823;42.662;23.352;2022-11-06T11:07:40;94614.94;;;12.96;93.90
41078;BME280;26823;42.662;23.352;2022-11-06T11:12:54;94598.03;;;12.85;95.36
41078;BME280;26823;42.662;23.352;2022-11-06T11:15:32;94600.00;;;12.79;96.44
41078;BME280;26823;42.662;23.352;2022-11-06T11:20:41;94586.03;;;12.72;97.19
41078;BME280;26823;42.662;23.352;2022-11-06T11:23:24;94586.78;;;12.92;97.49
41078;BME280;26823;42.662;23.352;2022-11-06T11:25:52;94535.31;;;12.39;96.95
41078;BME280;26823;42.662;23.352;2022-11-06T11:31:12;94591.28;;;12.82;97.44
41078;BME280;26823;42.662;23.352;2022-11-06T11:33:40;94594.81;;;12.83;97.70
41078;BME280;26823;42.662;23.352;2022-11-06T11:36:08;94578.19;;;12.70;97.79
41078;BME280;26823;42.662;23.352;2022-11-06T11:38:36;94593.31;;;12.91;98.35
41078;BME280;26823;42.662;23.352;2022-11-06T11:43:43;94590.41;;;12.87;95.63
41078;BME280;26823;42.662;23.352;2022-11-06T11:46:20;94592.66;;;13.13;95.34
41078;BME280;26823;42.662;23.352;2022-11-06T11:48:52;94594.84;;;13.11;94.31
41078;BME280;26823;42.662;23.352;2022-11-06T11:51:37;94593.13;;;12.87;93.47
41078;BME280;26823;42.662;23.352;2022-11-06T11:56:57;94593.34;;;13.04;92.82
41078;BME280;26823;42.662;23.352;2022-11-06T11:59:36;94590.66;;;13.32;92.79
41078;BME280;26823;42.662;23.352;2022-11-06T12:02:44;94588.75;;;13.19;92.16
41078;BME280;26823;42.662;23.352;2022-11-06T12:07:42;94584.31;;;13.09;91.13
41078;BME280;26823;42.662;23.352;2022-11-06T12:10:35;94589.59;;;12.86;90.91
41078;BME280;26823;42.662;23.352;2022-11-06T12:13:12;94588.06;;;12.80;90.96
41078;BME280;26823;42.662;23.352;2022-11-06T12:15:56;94582.63;;;12.80;91.33
41078;BME280;26823;42.662;23.352;2022-11-06T12:21:12;94588.88;;;12.81;91.08
41078;BME280;26823;42.662;23.352;2022-11-06T12:23:47;94594.41;;;12.76;90.68
41078;BME280;26823;42.662;23.352;2022-11-06T12:28:50;94588.84;;;12.67;89.83
41078;BME280;26823;42.662;23.352;2022-11-06T12:33:57;94580.41;;;12.68;88.96
41078;BME280;26823;42.662;23.352;2022-11-06T12:36:28;94578.13;;;12.76;88.97
41078;BME280;26823;42.662;23.352;2022-11-06T12:39:03;94578.59;;;12.78;88.33
41078;BME280;26823;42.662;23.352;2022-11-06T12:41:34;94589.00;;;12.89;88.44
41078;BME280;26823;42.662;23.352;2022-11-06T12:44:01;94581.72;;;12.71;89.04
41078;BME280;26823;42.662;23.352;2022-11-06T12:52:09;94588.19;;;12.89;88.14
41078;BME280;26823;42.662;23.352;2022-11-06T13:05:37;94596.53;;;12.93;86.67
41078;BME280;26823;42.662;23.352;2022-11-06T13:17:03;94607.34;;;13.12;86.99
41078;BME280;26823;42.662;23.352;2022-11-06T13:28:36;94620.19;;;12.92;86.94
41078;BME280;26823;42.662;23.352;2022-11-06T13:31:05;94602.25;;;12.77;87.24
41078;BME280;26823;42.662;23.352;2022-11-06T13:36:12;94614.13;;;12.95;87.77
41078;BME280;26823;42.662;23.352;2022-11-06T13:38:46;94623.06;;;12.96;87.96
41078;BME280;26823;42.662;23.352;2022-11-06T13:41:30;94618.16;;;12.98;86.93
41078;BME280;26823;42.662;23.352;2022-11-06T13:44:04;94616.97;;;13.04;86.36
41078;BME280;26823;42.662;23.352;2022-11-06T13:51:52;94628.47;;;13.15;86.70
41078;BME280;26823;42.662;23.352;2022-11-06T14:00:17;94627.19;;;13.40;85.00
41078;BME280;26823;42.662;23.352;2022-11-06T14:03:03;94626.47;;;13.34;84.66
41078;BME280;26823;42.662;23.352;2022-11-06T14:05:52;94619.41;;;13.33;85.01
41078;BME280;26823;42.662;23.352;2022-11-06T14:08:42;94623.25;;;13.32;84.73
41078;BME280;26823;42.662;23.352;2022-11-06T14:11:14;94622.03;;;13.25;84.49
41078;BME280;26823;42.662;23.352;2022-11-06T14:14:01;94627.97;;;13.27;84.36
41078;BME280;26823;42.662;23.352;2022-11-06T14:16:36;94628.41;;;13.34;84.15
41078;BME280;26823;42.662;23.352;2022-11-06T14:21:51;94619.28;;;13.11;83.81
41078;BME280;26823;42.662;23.352;2022-11-06T14:24:37;94605.31;;;13.03;83.46
41078;BME280;26823;42.662;23.352;2022-11-06T14:32:42;94634.19;;;13.13;82.46
41078;BME280;26823;42.662;23.352;2022-11-06T14:40:38;94654.91;;;13.23;80.56
41078;BME280;26823;42.662;23.352;2022-11-06T14:43:31;94653.63;;;13.20;78.71
41078;BME280;26823;42.662;23.352;2022-11-06T14:46:02;94649.00;;;13.35;78.24
41078;BME280;26823;42.662;23.352;2022-11-06T14:48:36;94645.06;;;13.27;77.50
41078;BME280;26823;42.662;23.352;2022-11-06T14:51:05;94654.03;;;13.28;78.46
41078;BME280;26823;42.662;23.352;2022-11-06T14:53:59;94649.78;;;13.21;78.36
41078;BME280;26823;42.662;23.352;2022-11-06T14:56:28;94635.47;;;13.02;77.49
41078;BME280;26823;42.662;23.352;2022-11-06T14:58:56;94657.03;;;13.26;77.37
41078;BME280;26823;42.662;23.352;2022-11-06T15:03:58;94653.88;;;13.05;77.39
41078;BME280;26823;42.662;23.352;2022-11-06T15:16:42;94662.72;;;13.11;76.44
41078;BME280;26823;42.662;23.352;2022-11-06T15:19:18;94659.56;;;13.23;76.28
41078;BME280;26823;42.662;23.352;2022-11-06T15:21:48;94650.00;;;12.78;77.06
41078;BME280;26823;42.662;23.352;2022-11-06T15:24:19;94656.06;;;12.70;77.66
41078;BME280;26823;42.662;23.352;2022-11-06T15:26:50;94678.06;;;12.87;77.46
41078;BME280;26823;42.662;23.352;2022-11-06T15:29:28;94665.66;;;12.81;77.23
41078;BME280;26823;42.662;23.352;2022-11-06T15:32:11;94689.22;;;12.86;76.89
41078;BME280;26823;42.662;23.352;2022-11-06T15:34:40;94669.50;;;12.61;77.99
41078;BME280;26823;42.662;23.352;2022-11-06T15:37:18;94681.59;;;12.69;77.79
41078;BME280;26823;42.662;23.352;2022-11-06T15:42:37;94692.50;;;12.83;77.47
41078;BME280;26823;42.662;23.352;2022-11-06T15:45:21;94686.72;;;12.70;77.50
41078;BME280;26823;42.662;23.352;2022-11-06T15:47:53;94679.63;;;12.75;77.76
41078;BME280;26823;42.662;23.352;2022-11-06T15:50:22;94689.88;;;12.78;77.35